createdAt,value
2017-10-22T00:00:14.876Z,2.10
2017-10-22T00:02:42.504Z,1.83
2017-10-22T00:05:10.746Z,2.50
2017-10-22T00:07:38.398Z,1.37
2017-10-22T00:10:05.987Z,1.40
2017-10-22T00:12:33.643Z,1.60
2017-10-22T00:15:01.278Z,1.93
2017-10-22T00:17:28.920Z,2.30
2017-10-22T00:19:56.527Z,1.43
2017-10-22T00:22:24.168Z,1.63
2017-10-22T00:24:51.798Z,2.07
2017-10-22T00:27:20.121Z,1.60
2017-10-22T00:29:47.723Z,3.03
2017-10-22T00:32:15.445Z,1.60
2017-10-22T00:34:43.032Z,1.50
2017-10-22T00:37:10.650Z,2.23
2017-10-22T00:39:38.262Z,2.23
2017-10-22T00:42:05.966Z,2.07
2017-10-22T00:44:34.431Z,1.93
2017-10-22T00:47:02.042Z,2.20
2017-10-22T00:49:29.670Z,1.83
2017-10-22T00:51:57.278Z,1.63
2017-10-22T00:54:24.963Z,1.63
2017-10-22T00:56:53.404Z,1.60
2017-10-22T00:59:21.051Z,1.20
2017-10-22T01:01:48.690Z,2.00
2017-10-22T01:04:16.343Z,1.40
2017-10-22T01:06:43.945Z,2.23
2017-10-22T01:09:11.709Z,1.70
2017-10-22T01:11:39.306Z,1.77
2017-10-22T01:14:07.583Z,1.40
2017-10-22T01:16:36.289Z,1.40
2017-10-22T01:19:05.164Z,1.60
2017-10-22T01:21:32.881Z,1.77
2017-10-22T01:24:00.475Z,1.10
2017-10-22T01:26:28.105Z,1.67
2017-10-22T01:28:55.768Z,1.83
2017-10-22T01:31:23.431Z,1.83
2017-10-22T01:33:51.014Z,2.40
2017-10-22T01:36:18.652Z,1.43
2017-10-22T01:38:46.245Z,1.30
2017-10-22T01:41:13.875Z,1.43
2017-10-22T01:43:41.456Z,1.67
2017-10-22T01:46:09.066Z,1.60
2017-10-22T01:48:36.665Z,3.03
2017-10-22T01:51:04.346Z,1.80
2017-10-22T01:53:31.942Z,1.73
2017-10-22T01:55:59.694Z,1.37
2017-10-22T01:58:27.297Z,1.23
2017-10-22T02:00:55.458Z,1.53
2017-10-22T02:03:23.054Z,1.40
2017-10-22T02:05:50.713Z,3.10
2017-10-22T02:08:18.306Z,1.50
2017-10-22T02:10:45.948Z,2.00
2017-10-22T02:13:13.553Z,1.57
2017-10-22T02:15:41.166Z,1.37
2017-10-22T02:18:08.787Z,1.60
2017-10-22T02:20:37.392Z,1.20
2017-10-22T02:23:04.986Z,1.60
2017-10-22T02:25:32.621Z,1.40
2017-10-22T02:28:00.242Z,1.60
2017-10-22T02:30:27.885Z,1.70
2017-10-22T02:32:55.498Z,1.83
2017-10-22T02:35:23.145Z,1.30
2017-10-22T02:37:50.738Z,1.33
2017-10-22T02:40:18.364Z,1.60
2017-10-22T02:42:46.038Z,2.00
2017-10-22T02:45:13.674Z,1.50
2017-10-22T02:47:41.315Z,1.47
2017-10-22T02:50:08.936Z,1.40
2017-10-22T02:52:36.603Z,1.43
2017-10-22T02:55:04.207Z,1.43
2017-10-22T02:57:32.698Z,1.60
2017-10-22T03:00:01.288Z,1.90
2017-10-22T03:02:28.890Z,2.23
2017-10-22T03:04:56.495Z,1.70
2017-10-22T03:07:24.111Z,1.70
2017-10-22T03:09:51.694Z,1.77
2017-10-22T03:12:19.316Z,1.57
2017-10-22T03:14:46.914Z,2.73
2017-10-22T03:17:14.537Z,1.40
2017-10-22T03:19:42.125Z,1.30
2017-10-22T03:22:09.763Z,3.50
2017-10-22T03:24:38.297Z,1.27
2017-10-22T03:27:05.944Z,1.60
2017-10-22T03:29:33.543Z,1.40
2017-10-22T03:32:01.174Z,1.60
2017-10-22T03:34:28.771Z,1.93
2017-10-22T03:36:56.412Z,1.10
2017-10-22T03:39:24.012Z,1.60
2017-10-22T03:41:51.637Z,1.60
2017-10-22T03:44:19.250Z,1.67
2017-10-22T03:46:46.851Z,2.37
2017-10-22T03:49:14.474Z,2.10
2017-10-22T03:51:42.070Z,2.07
2017-10-22T03:54:09.695Z,1.37
2017-10-22T03:56:37.301Z,1.43
2017-10-22T03:59:04.914Z,1.80
2017-10-22T04:01:33.502Z,1.50
2017-10-22T04:04:01.132Z,1.90
2017-10-22T04:06:28.737Z,1.50
2017-10-22T04:08:56.361Z,1.60
2017-10-22T04:11:23.964Z,1.47
2017-10-22T04:13:51.584Z,2.20
2017-10-22T04:16:19.266Z,1.33
2017-10-22T04:18:46.883Z,1.50
2017-10-22T04:21:14.477Z,1.60
2017-10-22T04:23:42.110Z,1.70
2017-10-22T04:26:09.686Z,3.17
2017-10-22T04:28:37.328Z,1.90
2017-10-22T04:31:04.962Z,1.83
2017-10-22T04:33:32.590Z,2.10
2017-10-22T04:36:00.214Z,2.53
2017-10-22T04:38:27.838Z,1.57
2017-10-22T04:40:55.440Z,1.90
2017-10-22T04:43:23.156Z,1.97
2017-10-22T04:45:50.751Z,2.53
2017-10-22T04:48:18.479Z,2.33
2017-10-22T04:50:46.114Z,1.73
2017-10-22T04:53:13.719Z,1.90
2017-10-22T04:55:41.357Z,2.43
2017-10-22T04:58:08.971Z,2.13
2017-10-22T05:00:36.578Z,2.07
2017-10-22T05:03:04.178Z,2.03
2017-10-22T05:05:31.810Z,1.97
2017-10-22T05:07:59.410Z,2.40
2017-10-22T05:10:27.051Z,1.60
2017-10-22T05:12:54.650Z,3.30
2017-10-22T05:15:22.279Z,1.73
2017-10-22T05:17:49.936Z,1.87
2017-10-22T05:20:17.566Z,1.77
2017-10-22T05:22:45.231Z,2.00
2017-10-22T05:25:12.856Z,2.10
2017-10-22T05:27:40.440Z,1.70
2017-10-22T05:30:08.080Z,1.30
2017-10-22T05:32:36.529Z,1.60
2017-10-22T05:35:04.150Z,1.87
2017-10-22T05:37:31.753Z,1.80
2017-10-22T05:39:59.367Z,2.17
2017-10-22T05:42:26.952Z,1.60
2017-10-22T05:44:54.570Z,1.30
2017-10-22T05:47:22.166Z,1.60
2017-10-22T05:49:49.790Z,1.27
2017-10-22T05:52:17.384Z,1.10
2017-10-22T05:54:45.031Z,1.77
2017-10-22T05:57:12.624Z,1.17
2017-10-22T05:59:40.855Z,2.30
2017-10-22T06:02:08.439Z,0.90
2017-10-22T06:04:36.055Z,0.90
2017-10-22T06:07:03.654Z,1.00
2017-10-22T06:09:31.275Z,0.87
2017-10-22T06:11:58.890Z,1.30
2017-10-22T06:14:26.514Z,2.50
2017-10-22T06:16:54.102Z,1.00
2017-10-22T06:19:22.576Z,0.90
2017-10-22T06:21:50.743Z,1.00
2017-10-22T06:24:18.376Z,0.80
2017-10-22T06:26:45.984Z,1.00
2017-10-22T06:29:13.639Z,1.17
2017-10-22T06:31:41.245Z,1.20
2017-10-22T06:34:08.920Z,0.80
2017-10-22T06:36:36.492Z,0.87
2017-10-22T06:39:04.140Z,0.70
2017-10-22T06:41:31.747Z,0.70
2017-10-22T06:43:59.370Z,1.47
2017-10-22T06:46:26.974Z,0.70
2017-10-22T06:48:54.602Z,0.90
2017-10-22T06:51:22.203Z,0.70
2017-10-22T06:53:49.830Z,1.50
2017-10-22T06:56:17.421Z,0.60
2017-10-22T06:58:45.053Z,0.70
2017-10-22T07:01:12.650Z,0.80
2017-10-22T07:03:40.279Z,0.60
2017-10-22T07:06:07.875Z,0.63
2017-10-22T07:08:35.540Z,0.70
2017-10-22T07:11:03.187Z,0.77
2017-10-22T07:13:30.835Z,0.60
2017-10-22T07:15:58.454Z,0.77
2017-10-22T07:18:26.087Z,0.70
2017-10-22T07:20:53.693Z,0.80
2017-10-22T07:23:21.333Z,1.07
2017-10-22T07:25:48.924Z,0.80
2017-10-22T07:28:16.663Z,0.67
2017-10-22T07:30:44.270Z,1.13
2017-10-22T07:33:11.911Z,1.00
2017-10-22T07:35:39.498Z,0.90
2017-10-22T07:38:07.123Z,0.70
2017-10-22T07:40:34.759Z,0.80
2017-10-22T07:43:02.414Z,0.70
2017-10-22T07:45:30.007Z,0.93
2017-10-22T07:47:57.654Z,0.80
2017-10-22T07:50:25.264Z,0.90
2017-10-22T07:52:52.973Z,0.90
2017-10-22T07:55:20.600Z,1.20
2017-10-22T07:57:48.783Z,0.90
2017-10-22T08:00:16.371Z,0.87
2017-10-22T08:02:43.989Z,1.13
2017-10-22T08:05:11.596Z,1.47
2017-10-22T08:07:39.328Z,0.80
2017-10-22T08:10:06.958Z,1.07
2017-10-22T08:12:34.572Z,0.90
2017-10-22T08:15:02.215Z,1.03
2017-10-22T08:17:29.930Z,0.90
2017-10-22T08:19:57.559Z,1.10
2017-10-22T08:22:25.155Z,1.20
2017-10-22T08:24:52.874Z,1.20
2017-10-22T08:27:20.537Z,1.37
2017-10-22T08:29:48.183Z,1.00
2017-10-22T08:32:15.775Z,1.20
2017-10-22T08:34:43.402Z,1.27
2017-10-22T08:37:10.995Z,1.73
2017-10-22T08:39:38.620Z,1.03
2017-10-22T08:42:06.207Z,0.87
2017-10-22T08:44:33.851Z,0.90
2017-10-22T08:47:01.503Z,1.10
2017-10-22T08:49:29.140Z,1.50
2017-10-22T08:51:56.731Z,0.90
2017-10-22T08:54:24.389Z,4.40
2017-10-22T08:56:52.039Z,2.00
2017-10-22T08:59:19.679Z,1.20
2017-10-22T09:01:47.919Z,1.10
2017-10-22T09:04:15.535Z,0.80
2017-10-22T09:06:43.144Z,0.80
2017-10-22T09:09:10.860Z,1.20
2017-10-22T09:11:38.447Z,0.93
2017-10-22T09:14:06.064Z,0.90
2017-10-22T09:16:33.686Z,1.33
2017-10-22T09:19:02.516Z,1.00
2017-10-22T09:21:30.159Z,1.13
2017-10-22T09:23:57.791Z,1.20
2017-10-22T09:26:25.402Z,1.43
2017-10-22T09:28:53.003Z,1.00
2017-10-22T09:31:20.724Z,0.93
2017-10-22T09:33:48.341Z,2.50
2017-10-22T09:36:16.017Z,2.50
2017-10-22T09:38:43.611Z,0.70
2017-10-22T09:41:11.248Z,1.30
2017-10-22T09:43:38.854Z,0.93
2017-10-22T09:46:06.506Z,0.90
2017-10-22T09:48:34.198Z,0.90
2017-10-22T09:51:01.878Z,1.03
2017-10-22T09:53:29.476Z,0.93
2017-10-22T09:55:57.076Z,0.80
2017-10-22T09:58:24.698Z,1.33
2017-10-22T10:00:52.303Z,1.17
2017-10-22T10:03:19.941Z,0.90
2017-10-22T10:05:47.542Z,1.10
2017-10-22T10:08:15.174Z,1.13
2017-10-22T10:10:42.755Z,1.20
2017-10-22T10:13:10.463Z,1.20
2017-10-22T10:15:38.050Z,1.13
2017-10-22T10:18:05.731Z,1.10
2017-10-22T10:20:33.351Z,2.53
2017-10-22T10:23:01.028Z,1.50
2017-10-22T10:25:28.613Z,0.90
2017-10-22T10:27:56.314Z,1.10
2017-10-22T10:30:23.894Z,1.30
2017-10-22T10:32:51.524Z,1.37
2017-10-22T10:35:19.126Z,0.97
2017-10-22T10:37:46.804Z,1.20
2017-10-22T10:40:14.511Z,1.20
2017-10-22T10:42:42.109Z,1.10
2017-10-22T10:45:09.755Z,1.13
2017-10-22T10:47:37.372Z,1.00
2017-10-22T10:50:05.167Z,3.47
2017-10-22T10:52:32.822Z,1.17
2017-10-22T10:55:00.440Z,0.90
2017-10-22T10:57:28.041Z,1.00
2017-10-22T10:59:55.715Z,0.90
2017-10-22T11:02:23.356Z,0.77
2017-10-22T11:04:50.963Z,1.30
2017-10-22T11:07:18.661Z,0.80
2017-10-22T11:09:46.290Z,1.10
2017-10-22T11:12:13.946Z,1.10
2017-10-22T11:14:41.785Z,0.90
2017-10-22T11:17:09.398Z,0.93
2017-10-22T11:19:37.022Z,1.00
2017-10-22T11:22:04.615Z,0.90
2017-10-22T11:24:32.265Z,1.50
2017-10-22T11:26:59.879Z,1.03
2017-10-22T11:29:27.524Z,1.43
2017-10-22T11:31:55.144Z,1.50
2017-10-22T11:34:22.797Z,1.70
2017-10-22T11:36:50.738Z,2.30
2017-10-22T11:39:18.491Z,1.60
2017-10-22T11:41:46.117Z,1.73
2017-10-22T11:44:13.767Z,1.80
2017-10-22T11:46:41.396Z,2.13
2017-10-22T11:49:09.003Z,1.80
2017-10-22T11:51:36.655Z,1.67
2017-10-22T11:54:04.306Z,1.73
2017-10-22T11:56:31.919Z,2.03
2017-10-22T11:58:59.569Z,2.83
2017-10-22T12:01:27.172Z,2.03
2017-10-22T12:03:54.884Z,2.50
2017-10-22T12:06:22.495Z,2.20
2017-10-22T12:08:50.109Z,2.20
2017-10-22T12:11:17.780Z,2.43
2017-10-22T12:13:45.390Z,2.67
2017-10-22T12:16:13.039Z,2.90
2017-10-22T12:18:40.758Z,2.73
2017-10-22T12:21:08.396Z,1.80
2017-10-22T12:23:35.987Z,2.10
2017-10-22T12:26:03.635Z,3.00
2017-10-22T12:28:31.235Z,2.03
2017-10-22T12:30:59.591Z,2.67
2017-10-22T12:33:27.177Z,2.30
2017-10-22T12:35:54.779Z,2.60
2017-10-22T12:38:22.418Z,2.43
2017-10-22T12:40:51.242Z,3.73
2017-10-22T12:43:18.898Z,3.20
2017-10-22T12:45:46.696Z,2.97
2017-10-22T12:48:14.326Z,2.33
2017-10-22T12:50:41.916Z,2.40
2017-10-22T12:53:09.626Z,2.30
2017-10-22T12:55:37.237Z,2.20
2017-10-22T12:58:04.877Z,2.90
2017-10-22T13:00:32.499Z,3.20
2017-10-22T13:03:00.154Z,3.13
2017-10-22T13:05:28.505Z,4.27
2017-10-22T13:07:56.160Z,2.37
2017-10-22T13:10:23.761Z,2.90
2017-10-22T13:12:51.413Z,2.70
2017-10-22T13:15:19.028Z,2.43
2017-10-22T13:17:46.821Z,3.53
2017-10-22T13:20:14.414Z,2.10
2017-10-22T13:22:42.120Z,2.07
2017-10-22T13:25:09.755Z,2.37
2017-10-22T13:27:37.383Z,2.10
2017-10-22T13:30:04.995Z,2.33
2017-10-22T13:32:32.698Z,2.43
2017-10-22T13:35:00.323Z,4.17
2017-10-22T13:37:27.965Z,2.23
2017-10-22T13:39:55.571Z,2.13
2017-10-22T13:42:23.150Z,2.47
2017-10-22T13:44:50.806Z,2.20
2017-10-22T13:47:18.402Z,2.30
2017-10-22T13:49:46.121Z,2.13
2017-10-22T13:52:13.718Z,2.53
2017-10-22T13:54:41.376Z,2.07
2017-10-22T13:57:08.984Z,2.50
2017-10-22T13:59:36.606Z,2.40
2017-10-22T14:02:04.223Z,2.50
2017-10-22T14:04:31.886Z,2.13
2017-10-22T14:06:59.680Z,1.77
2017-10-22T14:09:27.388Z,2.60
2017-10-22T14:11:54.992Z,2.90
2017-10-22T14:14:22.669Z,2.43
2017-10-22T14:16:50.296Z,2.13
2017-10-22T14:19:17.939Z,2.33
2017-10-22T14:21:45.531Z,2.23
2017-10-22T14:24:13.189Z,2.37
2017-10-22T14:26:40.813Z,3.00
2017-10-22T14:29:08.439Z,2.47
2017-10-22T14:31:36.064Z,1.77
2017-10-22T14:34:03.851Z,2.17
2017-10-22T14:36:31.488Z,3.67
2017-10-22T14:38:59.151Z,2.20
2017-10-22T14:41:26.756Z,2.70
2017-10-22T14:43:54.778Z,2.80
2017-10-22T14:46:22.390Z,2.67
2017-10-22T14:48:50.039Z,3.60
2017-10-22T14:51:17.642Z,2.60
2017-10-22T14:53:45.351Z,2.90
2017-10-22T14:56:12.972Z,2.90
2017-10-22T14:58:40.702Z,2.40
2017-10-22T15:01:08.284Z,2.20
2017-10-22T15:03:35.956Z,2.30
2017-10-22T15:06:03.556Z,2.57
2017-10-22T15:08:31.225Z,4.10
2017-10-22T15:10:58.870Z,2.50
2017-10-22T15:13:26.485Z,2.83
2017-10-22T15:15:54.119Z,2.20
2017-10-22T15:18:21.764Z,2.00
2017-10-22T15:20:49.412Z,2.50
2017-10-22T15:23:17.026Z,3.03
2017-10-22T15:25:44.656Z,2.03
2017-10-22T15:28:12.264Z,2.03
2017-10-22T15:30:39.975Z,2.00
2017-10-22T15:33:07.570Z,2.30
2017-10-22T15:35:35.214Z,1.73
2017-10-22T15:38:02.822Z,3.40
2017-10-22T15:40:30.464Z,1.73
2017-10-22T15:42:58.080Z,2.13
2017-10-22T15:45:25.741Z,1.77
2017-10-22T15:47:53.623Z,1.70
2017-10-22T15:50:21.307Z,2.40
2017-10-22T15:52:48.939Z,2.33
2017-10-22T15:55:16.558Z,2.53
2017-10-22T15:57:44.170Z,2.50
2017-10-22T16:00:11.839Z,2.90
2017-10-22T16:02:39.474Z,2.60
2017-10-22T16:05:07.113Z,2.50
2017-10-22T16:07:34.772Z,2.53
2017-10-22T16:10:02.410Z,3.03
2017-10-22T16:12:30.020Z,2.80
2017-10-22T16:14:57.683Z,2.70
2017-10-22T16:17:25.300Z,2.80
2017-10-22T16:19:52.947Z,2.80
2017-10-22T16:22:20.576Z,2.00
2017-10-22T16:24:48.234Z,2.30
2017-10-22T16:27:15.888Z,2.23
2017-10-22T16:29:43.526Z,2.23
2017-10-22T16:32:11.127Z,2.70
2017-10-22T16:34:38.797Z,2.40
2017-10-22T16:37:06.497Z,2.47
2017-10-22T16:39:34.932Z,2.43
2017-10-22T16:42:02.538Z,2.40
2017-10-22T16:44:30.235Z,2.50
2017-10-22T16:46:58.078Z,2.13
2017-10-22T16:49:25.763Z,2.47
2017-10-22T16:51:53.390Z,2.50
2017-10-22T16:54:21.031Z,2.03
2017-10-22T16:56:48.644Z,2.43
2017-10-22T16:59:16.308Z,2.70
2017-10-22T17:01:43.923Z,2.50
2017-10-22T17:04:11.560Z,2.40
2017-10-22T17:06:39.176Z,2.80
2017-10-22T17:09:06.850Z,2.50
2017-10-22T17:11:34.445Z,2.80
2017-10-22T17:14:02.101Z,6.53
2017-10-22T17:16:29.723Z,2.10
2017-10-22T17:18:57.378Z,1.97
2017-10-22T17:21:24.986Z,2.83
2017-10-22T17:23:52.623Z,1.90
2017-10-22T17:26:20.212Z,2.70
2017-10-22T17:28:47.838Z,1.80
2017-10-22T17:31:15.484Z,2.07
2017-10-22T17:33:43.157Z,2.00
2017-10-22T17:36:11.854Z,2.30
2017-10-22T17:38:39.702Z,2.33
2017-10-22T17:41:07.334Z,3.50
2017-10-22T17:43:34.987Z,3.43
2017-10-22T17:46:02.680Z,2.97
2017-10-22T17:48:30.360Z,3.00
2017-10-22T17:50:57.968Z,2.47
2017-10-22T17:53:25.619Z,3.13
2017-10-22T17:55:53.249Z,1.80
2017-10-22T17:58:20.874Z,2.20
2017-10-22T18:00:51.140Z,3.93
2017-10-22T18:03:18.801Z,2.60
2017-10-22T18:05:46.398Z,2.50
2017-10-22T18:08:14.108Z,2.30
2017-10-22T18:10:42.356Z,2.20
2017-10-22T18:13:09.971Z,2.60
2017-10-22T18:15:37.609Z,1.93
2017-10-22T18:18:05.235Z,2.80
2017-10-22T18:20:32.888Z,2.40
2017-10-22T18:23:00.891Z,2.30
2017-10-22T18:25:28.647Z,1.70
2017-10-22T18:27:56.943Z,1.67
2017-10-22T18:30:24.604Z,2.53
2017-10-22T18:32:52.212Z,2.30
2017-10-22T18:35:19.849Z,2.20
2017-10-22T18:37:47.463Z,1.93
2017-10-22T18:40:15.186Z,2.30
2017-10-22T18:42:42.832Z,4.13
2017-10-22T18:45:10.449Z,2.20
2017-10-22T18:47:38.069Z,2.53
2017-10-22T18:50:05.697Z,2.43
2017-10-22T18:52:33.291Z,3.73
2017-10-22T18:55:00.942Z,3.23
2017-10-22T18:57:28.539Z,2.50
2017-10-22T18:59:56.170Z,2.47
2017-10-22T19:02:23.799Z,2.90
2017-10-22T19:04:51.496Z,2.70
2017-10-22T19:07:19.139Z,2.33
2017-10-22T19:09:46.766Z,2.37
2017-10-22T19:12:14.467Z,2.33
2017-10-22T19:14:42.071Z,2.20
2017-10-22T19:17:09.719Z,2.53
2017-10-22T19:19:37.335Z,2.63
2017-10-22T19:22:04.995Z,2.80
2017-10-22T19:24:32.619Z,2.00
2017-10-22T19:27:00.282Z,2.90
2017-10-22T19:29:27.898Z,1.63
2017-10-22T19:31:55.535Z,2.77
2017-10-22T19:34:24.039Z,2.97
2017-10-22T19:36:51.731Z,2.43
2017-10-22T19:39:19.336Z,2.73
2017-10-22T19:41:46.961Z,2.30
2017-10-22T19:44:14.686Z,2.70
2017-10-22T19:46:42.320Z,2.40
2017-10-22T19:49:09.987Z,2.50
2017-10-22T19:51:37.666Z,2.73
2017-10-22T19:54:05.303Z,9.07
2017-10-22T19:56:32.924Z,5.20
2017-10-22T19:59:00.567Z,4.10
2017-10-22T20:01:28.181Z,2.40
2017-10-22T20:03:55.852Z,3.27
2017-10-22T20:06:23.458Z,2.33
2017-10-22T20:08:51.176Z,3.07
2017-10-22T20:11:18.779Z,3.07
2017-10-22T20:13:46.516Z,3.03
2017-10-22T20:16:14.137Z,3.10
2017-10-22T20:18:41.768Z,3.60
2017-10-22T20:21:09.366Z,3.13
2017-10-22T20:23:37.016Z,2.60
2017-10-22T20:26:05.538Z,2.97
2017-10-22T20:28:33.190Z,1.97
2017-10-22T20:31:00.792Z,2.43
2017-10-22T20:33:28.413Z,2.20
2017-10-22T20:35:56.022Z,2.13
2017-10-22T20:38:24.534Z,1.97
2017-10-22T20:40:52.139Z,3.00
2017-10-22T20:43:19.810Z,2.57
2017-10-22T20:45:47.383Z,1.93
2017-10-22T20:48:15.048Z,3.00
2017-10-22T20:50:42.705Z,2.93
2017-10-22T20:53:10.395Z,2.60
2017-10-22T20:55:37.992Z,2.00
2017-10-22T20:58:05.760Z,2.00
2017-10-22T21:00:33.353Z,2.27
2017-10-22T21:03:00.999Z,2.27
2017-10-22T21:05:28.643Z,3.20
2017-10-22T21:07:56.277Z,2.43
2017-10-22T21:10:24.097Z,2.77
2017-10-22T21:12:51.697Z,2.90
2017-10-22T21:15:19.446Z,1.93
2017-10-22T21:17:47.063Z,2.23
2017-10-22T21:20:14.694Z,2.70
2017-10-22T21:22:42.343Z,2.40
2017-10-22T21:25:09.990Z,1.93
2017-10-22T21:27:37.610Z,1.90
2017-10-22T21:30:05.219Z,3.20
2017-10-22T21:32:32.838Z,2.57
2017-10-22T21:35:00.463Z,2.83
2017-10-22T21:37:28.096Z,3.30
2017-10-22T21:39:56.462Z,2.80
2017-10-22T21:42:24.078Z,2.60
2017-10-22T21:44:51.679Z,3.27
2017-10-22T21:47:19.299Z,2.83
2017-10-22T21:49:46.955Z,2.60
2017-10-22T21:52:15.349Z,3.10
2017-10-22T21:54:42.973Z,2.40
2017-10-22T21:57:10.592Z,2.60
2017-10-22T21:59:38.228Z,3.40
2017-10-22T22:02:05.826Z,2.83
2017-10-22T22:04:33.504Z,2.57
2017-10-22T22:07:01.104Z,2.40
2017-10-22T22:09:28.835Z,2.00
2017-10-22T22:11:56.478Z,1.90
2017-10-22T22:14:24.059Z,2.63
2017-10-22T22:16:51.691Z,2.53
2017-10-22T22:19:19.295Z,2.10
2017-10-22T22:21:46.946Z,2.07
2017-10-22T22:24:14.550Z,2.33
2017-10-22T22:26:42.210Z,2.80
2017-10-22T22:29:09.818Z,2.23
2017-10-22T22:31:37.448Z,2.90
2017-10-22T22:34:05.062Z,3.57
2017-10-22T22:36:32.719Z,2.60
2017-10-22T22:39:00.315Z,2.93
2017-10-22T22:41:28.000Z,3.00
2017-10-22T22:43:56.239Z,2.20
2017-10-22T22:46:23.876Z,2.97
2017-10-22T22:48:52.090Z,2.27
2017-10-22T22:51:19.687Z,1.80
2017-10-22T22:53:47.352Z,2.37
2017-10-22T22:56:14.965Z,1.93
2017-10-22T22:58:42.587Z,2.13
2017-10-22T23:01:10.200Z,2.03
2017-10-22T23:03:37.824Z,2.70
2017-10-22T23:06:06.204Z,2.20
2017-10-22T23:08:33.830Z,2.30
2017-10-22T23:11:01.451Z,2.73
2017-10-22T23:13:29.095Z,2.23
2017-10-22T23:15:56.706Z,2.20
2017-10-22T23:18:24.351Z,4.37
2017-10-22T23:20:52.004Z,3.30
2017-10-22T23:23:19.619Z,2.63
2017-10-22T23:25:47.218Z,2.10
2017-10-22T23:28:14.863Z,3.10
2017-10-22T23:30:42.510Z,3.50
2017-10-22T23:33:10.133Z,2.67
2017-10-22T23:35:37.739Z,3.30
2017-10-22T23:38:05.359Z,2.90
2017-10-22T23:40:32.954Z,2.80
2017-10-22T23:43:00.589Z,3.53
2017-10-22T23:45:28.227Z,3.10
2017-10-22T23:47:55.854Z,2.73
2017-10-22T23:50:23.446Z,2.70
2017-10-22T23:52:52.062Z,3.50
2017-10-22T23:55:19.663Z,4.57
2017-10-22T23:57:47.364Z,2.93
